createdAt,value
2023-05-10T00:01:21.839Z,95501.66
2023-05-10T00:04:28.184Z,95500.00
2023-05-10T00:07:30.541Z,95495.66
2023-05-10T00:10:32.629Z,95492.97
2023-05-10T00:13:34.711Z,95496.69
2023-05-10T00:16:36.375Z,95499.38
2023-05-10T00:19:38.719Z,95493.16
2023-05-10T00:22:40.438Z,95486.78
2023-05-10T00:25:43.672Z,95479.94
2023-05-10T00:28:45.273Z,95487.78
2023-05-10T00:31:46.889Z,95486.97
2023-05-10T00:34:48.975Z,95480.97
2023-05-10T00:37:51.068Z,95484.50
2023-05-10T00:40:53.143Z,95477.84
2023-05-10T00:44:03.106Z,95484.06
2023-05-10T00:47:05.640Z,95477.44
2023-05-10T00:50:08.027Z,95473.09
2023-05-10T00:53:10.199Z,95476.63
2023-05-10T00:56:13.285Z,95471.25
2023-05-10T00:59:17.801Z,95476.81
2023-05-10T01:02:19.507Z,95476.38
2023-05-10T01:05:21.276Z,95474.13
2023-05-10T01:08:23.327Z,95474.50
2023-05-10T01:11:26.381Z,95478.22
2023-05-10T01:14:29.352Z,95477.81
2023-05-10T01:17:32.585Z,95476.78
2023-05-10T01:20:44.800Z,95478.00
2023-05-10T01:24:20.540Z,95484.00
2023-05-10T01:27:31.515Z,95471.81
2023-05-10T01:30:45.791Z,95481.91
2023-05-10T01:33:59.999Z,95476.13
2023-05-10T01:37:19.463Z,95475.28
2023-05-10T01:40:31.330Z,95475.47
2023-05-10T01:43:58.070Z,95481.06
2023-05-10T01:47:07.667Z,95483.97
2023-05-10T01:50:18.649Z,95476.72
2023-05-10T01:53:22.851Z,95477.31
2023-05-10T01:56:28.951Z,95489.72
2023-05-10T01:59:37.357Z,95484.75
2023-05-10T02:02:43.266Z,95482.88
2023-05-10T02:05:48.230Z,95485.16
2023-05-10T02:08:52.597Z,95491.72
2023-05-10T02:11:56.952Z,95491.69
2023-05-10T02:15:03.095Z,95495.22
2023-05-10T02:18:07.042Z,95492.94
2023-05-10T02:21:09.850Z,95494.59
2023-05-10T02:24:16.662Z,95502.22
2023-05-10T02:27:20.157Z,95499.72
2023-05-10T02:30:24.074Z,95503.44
2023-05-10T02:33:27.466Z,95502.81
2023-05-10T02:36:30.772Z,95504.88
2023-05-10T02:39:33.754Z,95499.06
2023-05-10T02:42:38.771Z,95499.66
2023-05-10T02:45:42.537Z,95493.22
2023-05-10T02:48:45.324Z,95493.78
2023-05-10T02:51:52.478Z,95508.50
2023-05-10T02:54:57.646Z,95512.00
2023-05-10T02:58:02.154Z,95508.69
2023-05-10T03:01:04.081Z,95506.19
2023-05-10T03:04:07.278Z,95505.78
2023-05-10T03:07:09.583Z,95513.63
2023-05-10T03:10:12.677Z,95513.00
2023-05-10T03:13:30.568Z,95514.00
2023-05-10T03:16:59.867Z,95519.56
2023-05-10T03:20:08.883Z,95513.56
2023-05-10T03:23:17.374Z,95511.69
2023-05-10T03:26:26.436Z,95512.31
2023-05-10T03:29:34.877Z,95516.00
2023-05-10T03:32:38.579Z,95517.66
2023-05-10T03:35:41.324Z,95525.91
2023-05-10T03:38:43.603Z,95524.06
2023-05-10T03:41:46.087Z,95528.78
2023-05-10T03:44:50.177Z,95531.91
2023-05-10T03:47:52.315Z,95532.75
2023-05-10T03:50:54.734Z,95540.16
2023-05-10T03:53:56.685Z,95538.91
2023-05-10T03:56:58.928Z,95551.03
2023-05-10T04:00:02.608Z,95560.91
2023-05-10T04:03:15.996Z,95556.31
2023-05-10T04:06:18.436Z,95562.50
2023-05-10T04:09:20.996Z,95569.31
2023-05-10T04:12:23.257Z,95569.78
2023-05-10T04:15:25.358Z,95564.63
2023-05-10T04:18:27.073Z,95578.44
2023-05-10T04:21:28.700Z,95575.69
2023-05-10T04:24:30.774Z,95576.06
2023-05-10T04:27:32.913Z,95581.16
2023-05-10T04:30:34.981Z,95585.06
2023-05-10T04:33:37.781Z,95586.66
2023-05-10T04:36:39.828Z,95590.34
2023-05-10T04:39:42.429Z,95590.75
2023-05-10T04:42:44.790Z,95595.47
2023-05-10T04:45:46.593Z,95603.50
2023-05-10T04:48:48.309Z,95604.69
2023-05-10T04:51:49.968Z,95595.81
2023-05-10T04:54:52.372Z,95603.88
2023-05-10T04:57:57.760Z,95606.53
2023-05-10T05:01:08.056Z,95605.34
2023-05-10T05:04:09.722Z,95613.00
2023-05-10T05:07:11.755Z,95609.94
2023-05-10T05:10:14.096Z,95607.28
2023-05-10T05:13:16.492Z,95617.41
2023-05-10T05:16:18.243Z,95619.47
2023-05-10T05:19:19.939Z,95628.97
2023-05-10T05:22:28.269Z,95622.78
2023-05-10T05:25:30.373Z,95628.13
2023-05-10T05:28:34.966Z,95626.94
2023-05-10T05:31:37.215Z,95633.78
2023-05-10T05:34:39.332Z,95626.56
2023-05-10T05:37:41.620Z,95633.97
2023-05-10T05:40:43.323Z,95639.16
2023-05-10T05:43:44.973Z,95637.09
2023-05-10T05:46:46.584Z,95636.53
2023-05-10T05:49:48.211Z,95646.25
2023-05-10T05:52:50.316Z,95648.72
2023-05-10T05:55:56.737Z,95653.53
2023-05-10T05:58:58.391Z,95651.50
2023-05-10T06:02:00.188Z,95656.41
2023-05-10T06:05:02.031Z,95660.16
2023-05-10T06:08:03.735Z,95652.59
2023-05-10T06:11:06.478Z,95656.09
2023-05-10T06:14:09.013Z,95657.78
2023-05-10T06:17:11.174Z,95658.38
2023-05-10T06:20:13.387Z,95662.38
2023-05-10T06:23:15.781Z,95664.41
2023-05-10T06:26:17.878Z,95673.28
2023-05-10T06:29:19.517Z,95670.03
2023-05-10T06:32:21.211Z,95675.84
2023-05-10T06:35:22.886Z,95678.13
2023-05-10T06:38:24.838Z,95674.09
2023-05-10T06:41:26.382Z,95675.53
2023-05-10T06:44:28.236Z,95683.41
2023-05-10T06:47:30.345Z,95685.72
2023-05-10T06:50:32.038Z,95689.06
2023-05-10T06:53:33.788Z,95691.16
2023-05-10T06:56:35.408Z,95691.22
2023-05-10T06:59:37.666Z,95690.84
2023-05-10T07:02:39.387Z,95696.66
2023-05-10T07:05:41.548Z,95694.81
2023-05-10T07:08:43.255Z,95699.41
2023-05-10T07:11:44.904Z,95703.75
2023-05-10T07:14:46.838Z,95707.69
2023-05-10T07:17:48.499Z,95708.16
2023-05-10T07:20:50.900Z,95711.91
2023-05-10T07:23:52.605Z,95716.78
2023-05-10T07:26:54.651Z,95719.34
2023-05-10T07:29:57.538Z,95717.13
2023-05-10T07:33:00.230Z,95716.81
2023-05-10T07:36:02.370Z,95715.56
2023-05-10T07:39:04.676Z,95724.69
2023-05-10T07:42:06.919Z,95715.19
2023-05-10T07:45:09.595Z,95718.31
2023-05-10T07:48:12.167Z,95719.59
2023-05-10T07:51:13.882Z,95709.44
2023-05-10T07:54:15.577Z,95721.25
2023-05-10T07:57:18.595Z,95726.63
2023-05-10T08:00:21.502Z,95728.53
2023-05-10T08:03:23.276Z,95728.34
2023-05-10T08:06:29.091Z,95728.97
2023-05-10T08:09:30.750Z,95731.44
2023-05-10T08:12:32.755Z,95726.47
2023-05-10T08:15:34.390Z,95717.16
2023-05-10T08:18:36.138Z,95726.53
2023-05-10T08:21:38.326Z,95731.09
2023-05-10T08:24:40.077Z,95729.44
2023-05-10T08:27:42.147Z,95733.44
2023-05-10T08:30:44.338Z,95731.81
2023-05-10T08:33:46.010Z,95725.84
2023-05-10T08:36:48.165Z,95732.69
2023-05-10T08:39:50.404Z,95733.09
2023-05-10T08:42:59.933Z,95731.50
2023-05-10T08:46:04.119Z,95729.44
2023-05-10T08:49:11.258Z,95736.47
2023-05-10T08:52:16.003Z,95730.28
2023-05-10T08:55:18.798Z,95731.75
2023-05-10T08:58:21.829Z,95743.31
2023-05-10T09:01:26.493Z,95737.09
2023-05-10T09:04:30.451Z,95722.22
2023-05-10T09:07:34.806Z,95727.63
2023-05-10T09:10:39.479Z,95724.75
2023-05-10T09:13:43.324Z,95730.16
2023-05-10T09:16:45.264Z,95730.41
2023-05-10T09:19:47.446Z,95735.38
2023-05-10T09:22:49.216Z,95727.13
2023-05-10T09:26:05.538Z,95730.00
2023-05-10T09:29:10.508Z,95739.75
2023-05-10T09:32:13.804Z,95743.91
2023-05-10T09:35:18.422Z,95739.75
2023-05-10T09:38:20.758Z,95741.59
2023-05-10T09:41:24.372Z,95730.66
2023-05-10T09:44:27.256Z,95730.88
2023-05-10T09:47:28.918Z,95729.69
2023-05-10T09:50:31.395Z,95736.53
2023-05-10T09:53:33.472Z,95732.53
2023-05-10T09:56:36.924Z,95747.19
2023-05-10T09:59:44.259Z,95741.97
2023-05-10T10:02:48.834Z,95738.88
2023-05-10T10:05:50.712Z,95745.25
2023-05-10T10:08:56.744Z,95733.63
2023-05-10T10:12:01.085Z,95736.09
2023-05-10T10:15:02.989Z,95741.63
2023-05-10T10:18:06.720Z,95734.78
2023-05-10T10:21:11.630Z,95737.91
2023-05-10T10:24:13.276Z,95754.25
2023-05-10T10:27:27.766Z,95755.59
2023-05-10T10:30:52.230Z,95751.34
2023-05-10T10:34:02.506Z,95747.97
2023-05-10T10:37:07.942Z,95749.00
2023-05-10T10:40:33.568Z,95736.53
2023-05-10T10:43:36.989Z,95738.22
2023-05-10T10:47:02.211Z,95734.50
2023-05-10T10:50:07.192Z,95731.22
2023-05-10T10:53:13.160Z,95740.53
2023-05-10T10:56:16.287Z,95731.06
2023-05-10T10:59:28.848Z,95739.16
2023-05-10T11:02:40.185Z,95742.13
2023-05-10T11:05:44.313Z,95737.75
2023-05-10T11:08:46.112Z,95729.50
2023-05-10T11:11:59.859Z,95737.81
2023-05-10T11:15:01.981Z,95733.72
2023-05-10T11:18:20.311Z,95727.34
2023-05-10T11:21:22.078Z,95725.50
2023-05-10T11:24:29.027Z,95720.34
2023-05-10T11:27:31.114Z,95716.88
2023-05-10T11:30:33.421Z,95711.75
2023-05-10T11:33:49.705Z,95723.78
2023-05-10T11:36:54.858Z,95724.41
2023-05-10T11:39:57.002Z,95715.91
2023-05-10T11:42:58.641Z,95723.78
2023-05-10T11:46:01.203Z,95720.91
2023-05-10T11:49:05.868Z,95730.00
2023-05-10T11:52:08.819Z,95722.13
2023-05-10T11:55:11.463Z,95739.72
2023-05-10T11:58:13.235Z,95733.72
2023-05-10T12:01:15.682Z,95742.03
2023-05-10T12:04:17.798Z,95738.88
2023-05-10T12:07:19.673Z,95741.38
2023-05-10T12:10:27.434Z,95747.97
2023-05-10T12:13:29.881Z,95740.72
2023-05-10T12:16:31.850Z,95741.56
2023-05-10T12:19:41.027Z,95744.47
2023-05-10T12:22:46.482Z,95738.88
2023-05-10T12:25:48.439Z,95745.31
2023-05-10T12:28:50.087Z,95752.94
2023-05-10T12:31:52.628Z,95752.00
2023-05-10T12:34:54.394Z,95751.56
2023-05-10T12:37:56.404Z,95752.72
2023-05-10T12:41:00.236Z,95750.19
2023-05-10T12:44:02.543Z,95751.78
2023-05-10T12:47:04.666Z,95750.13
2023-05-10T12:50:06.824Z,95751.78
2023-05-10T12:53:09.482Z,95761.13
2023-05-10T12:56:12.398Z,95755.38
2023-05-10T12:59:14.536Z,95756.03
2023-05-10T13:02:18.796Z,95765.94
2023-05-10T13:05:20.979Z,95763.47
2023-05-10T13:08:23.195Z,95763.69
2023-05-10T13:11:25.124Z,95773.38
2023-05-10T13:14:27.257Z,95778.25
2023-05-10T13:17:30.636Z,95788.03
2023-05-10T13:20:33.213Z,95797.66
2023-05-10T13:23:36.030Z,95802.94
2023-05-10T13:26:38.213Z,95800.97
2023-05-10T13:29:39.755Z,95800.91
2023-05-10T13:32:42.508Z,95793.78
2023-05-10T13:35:44.837Z,95803.63
2023-05-10T13:38:47.207Z,95805.47
2023-05-10T13:41:49.460Z,95797.38
2023-05-10T13:44:51.564Z,95804.59
2023-05-10T13:47:53.233Z,95799.75
2023-05-10T13:50:55.917Z,95795.63
2023-05-10T13:53:57.525Z,95795.16
2023-05-10T13:57:00.618Z,95805.34
2023-05-10T14:00:03.250Z,95797.47
2023-05-10T14:03:12.226Z,95808.41
2023-05-10T14:06:14.721Z,95811.91
2023-05-10T14:09:16.856Z,95811.34
2023-05-10T14:12:18.461Z,95825.78
2023-05-10T14:15:21.081Z,95831.66
2023-05-10T14:18:23.525Z,95834.00
2023-05-10T14:21:25.280Z,95833.34
2023-05-10T14:24:27.354Z,95832.31
2023-05-10T14:27:28.884Z,95832.78
2023-05-10T14:30:31.551Z,95829.75
2023-05-10T14:33:33.741Z,95836.19
2023-05-10T14:36:35.354Z,95835.09
2023-05-10T14:39:37.367Z,95835.44
2023-05-10T14:42:38.959Z,95841.38
2023-05-10T14:45:40.958Z,95848.47
2023-05-10T14:48:42.634Z,95849.88
2023-05-10T14:51:46.035Z,95857.41
2023-05-10T14:54:48.639Z,95856.97
2023-05-10T14:57:51.651Z,95857.50
2023-05-10T15:00:54.181Z,95855.38
2023-05-10T15:03:56.944Z,95851.00
2023-05-10T15:07:00.630Z,95856.53
2023-05-10T15:10:03.614Z,95853.41
2023-05-10T15:13:06.310Z,95849.22
2023-05-10T15:16:08.475Z,95852.75
2023-05-10T15:19:11.327Z,95860.13
2023-05-10T15:22:12.969Z,95853.94
2023-05-10T15:25:15.994Z,95853.75
2023-05-10T15:28:17.766Z,95857.63
2023-05-10T15:31:19.877Z,95855.97
2023-05-10T15:34:22.610Z,95853.47
2023-05-10T15:37:25.415Z,95860.69
2023-05-10T15:40:27.964Z,95855.38
2023-05-10T15:43:29.658Z,95863.13
2023-05-10T15:46:31.641Z,95876.56
2023-05-10T15:49:33.962Z,95870.09
2023-05-10T15:52:36.170Z,95877.47
2023-05-10T15:55:37.776Z,95874.47
2023-05-10T15:58:41.033Z,95880.16
2023-05-10T16:01:43.266Z,95880.31
2023-05-10T16:04:45.110Z,95878.03
2023-05-10T16:07:47.614Z,95881.69
2023-05-10T16:10:51.214Z,95875.84
2023-05-10T16:13:53.744Z,95889.25
2023-05-10T16:16:56.383Z,95889.91
2023-05-10T16:19:58.236Z,95886.72
2023-05-10T16:23:06.662Z,95885.09
2023-05-10T16:26:09.345Z,95887.56
2023-05-10T16:29:11.177Z,95893.13
2023-05-10T16:32:12.834Z,95889.41
2023-05-10T16:35:15.770Z,95898.66
2023-05-10T16:38:17.960Z,95891.44
2023-05-10T16:41:20.101Z,95893.47
2023-05-10T16:44:25.686Z,95904.84
2023-05-10T16:47:28.173Z,95903.00
2023-05-10T16:50:30.444Z,95901.50
2023-05-10T16:53:32.571Z,95908.03
2023-05-10T16:56:34.149Z,95914.56
2023-05-10T16:59:36.200Z,95913.06
2023-05-10T17:02:39.416Z,95911.22
2023-05-10T17:05:41.344Z,95908.88
2023-05-10T17:08:44.486Z,95910.75
2023-05-10T17:11:46.705Z,95914.25
2023-05-10T17:14:48.396Z,95907.25
2023-05-10T17:17:50.772Z,95904.38
2023-05-10T17:20:52.514Z,95915.28
2023-05-10T17:23:54.621Z,95915.63
2023-05-10T17:26:57.400Z,95920.13
2023-05-10T17:29:59.520Z,95920.13
2023-05-10T17:33:02.159Z,95917.81
2023-05-10T17:36:04.493Z,95914.47
2023-05-10T17:39:06.371Z,95915.16
2023-05-10T17:42:08.569Z,95922.34
2023-05-10T17:45:10.854Z,95914.66
2023-05-10T17:48:13.478Z,95915.50
2023-05-10T17:51:15.677Z,95926.03
2023-05-10T17:54:17.946Z,95922.16
2023-05-10T17:57:20.792Z,95922.38
2023-05-10T18:00:22.427Z,95924.38
2023-05-10T18:03:24.681Z,95920.19
2023-05-10T18:06:26.465Z,95921.41
2023-05-10T18:09:29.503Z,95917.22
2023-05-10T18:12:31.866Z,95914.88
2023-05-10T18:15:34.086Z,95915.69
2023-05-10T18:18:36.535Z,95919.75
2023-05-10T18:21:39.096Z,95927.78
2023-05-10T18:24:40.755Z,95930.78
2023-05-10T18:27:43.464Z,95925.78
2023-05-10T18:30:45.490Z,95929.47
2023-05-10T18:33:47.126Z,95919.94
2023-05-10T18:36:48.772Z,95920.47
2023-05-10T18:39:50.795Z,95926.81
2023-05-10T18:42:52.908Z,95925.31
2023-05-10T18:45:55.015Z,95931.69
2023-05-10T18:48:56.643Z,95934.53
2023-05-10T18:52:01.152Z,95938.19
2023-05-10T18:55:03.800Z,95935.69
2023-05-10T18:58:05.940Z,95934.53
2023-05-10T19:01:08.028Z,95937.88
2023-05-10T19:04:10.206Z,95945.06
2023-05-10T19:07:12.419Z,95941.88
2023-05-10T19:10:14.587Z,95942.72
2023-05-10T19:13:17.242Z,95946.41
2023-05-10T19:16:20.329Z,95947.41
2023-05-10T19:19:24.245Z,95950.06
2023-05-10T19:22:44.993Z,95950.91
2023-05-10T19:25:51.024Z,95952.25
2023-05-10T19:28:53.710Z,95960.28
2023-05-10T19:31:55.759Z,95958.94
2023-05-10T19:34:58.150Z,95956.25
2023-05-10T19:38:00.617Z,95961.44
2023-05-10T19:41:02.338Z,95957.94
2023-05-10T19:44:35.276Z,95954.44
2023-05-10T19:47:37.604Z,95958.59
2023-05-10T19:50:39.729Z,95949.44
2023-05-10T19:53:44.730Z,95952.25
2023-05-10T19:56:46.419Z,95952.59
2023-05-10T19:59:48.602Z,95960.44
2023-05-10T20:02:51.728Z,95958.94
2023-05-10T20:05:53.964Z,95957.09
2023-05-10T20:08:55.874Z,95958.78
2023-05-10T20:11:58.312Z,95949.91
2023-05-10T20:15:00.410Z,95952.78
2023-05-10T20:18:04.108Z,95956.47
2023-05-10T20:21:06.990Z,95960.81
2023-05-10T20:24:09.788Z,95960.97
2023-05-10T20:27:11.691Z,95958.47
2023-05-10T20:30:13.323Z,95953.28
2023-05-10T20:33:15.790Z,95953.63
2023-05-10T20:36:17.926Z,95962.44
2023-05-10T20:39:20.002Z,95951.94
2023-05-10T20:42:22.685Z,95951.13
2023-05-10T20:45:24.901Z,95952.78
2023-05-10T20:48:26.502Z,95950.94
2023-05-10T20:51:30.379Z,95951.75
2023-05-10T20:54:32.412Z,95951.13
2023-05-10T20:57:33.999Z,95952.59
2023-05-10T21:00:35.598Z,95953.44
2023-05-10T21:03:38.183Z,95949.75
2023-05-10T21:06:39.759Z,95943.41
2023-05-10T21:09:41.835Z,95947.09
2023-05-10T21:12:43.430Z,95951.59
2023-05-10T21:15:45.604Z,95947.09
2023-05-10T21:18:47.780Z,95952.28
2023-05-10T21:21:49.482Z,95947.25
2023-05-10T21:24:51.567Z,95939.22
2023-05-10T21:27:53.219Z,95952.78
2023-05-10T21:30:55.899Z,95938.59
2023-05-10T21:33:58.330Z,95941.25
2023-05-10T21:37:00.061Z,95940.25
2023-05-10T21:40:01.709Z,95934.06
2023-05-10T21:43:04.770Z,95937.75
2023-05-10T21:46:07.417Z,95942.09
2023-05-10T21:49:09.535Z,95943.09
2023-05-10T21:52:11.759Z,95937.91
2023-05-10T21:55:13.990Z,95932.56
2023-05-10T21:58:16.485Z,95934.41
2023-05-10T22:01:18.950Z,95939.75
2023-05-10T22:04:21.305Z,95938.06
2023-05-10T22:07:22.929Z,95944.41
2023-05-10T22:10:25.437Z,95938.25
2023-05-10T22:13:27.095Z,95924.56
2023-05-10T22:16:29.417Z,95937.59
2023-05-10T22:19:31.448Z,95934.91
2023-05-10T22:22:34.597Z,95935.25
2023-05-10T22:25:36.194Z,95936.91
2023-05-10T22:28:39.114Z,95936.75
2023-05-10T22:31:41.334Z,95937.59
2023-05-10T22:34:43.550Z,95931.56
2023-05-10T22:37:46.375Z,95937.75
2023-05-10T22:40:48.404Z,95939.59
2023-05-10T22:43:50.467Z,95934.25
2023-05-10T22:46:52.685Z,95935.09
2023-05-10T22:49:56.106Z,95936.91
2023-05-10T22:52:58.228Z,95933.41
2023-05-10T22:56:00.626Z,95937.91
2023-05-10T22:59:02.701Z,95941.59
2023-05-10T23:02:04.969Z,95946.94
2023-05-10T23:05:07.692Z,95937.59
2023-05-10T23:08:09.585Z,95940.75
2023-05-10T23:11:11.729Z,95946.09
2023-05-10T23:14:14.053Z,95946.44
2023-05-10T23:17:16.383Z,95950.78
2023-05-10T23:20:18.226Z,95950.13
2023-05-10T23:23:20.612Z,95953.78
2023-05-10T23:26:22.791Z,95955.78
2023-05-10T23:29:26.298Z,95955.78
2023-05-10T23:32:28.016Z,95946.28
2023-05-10T23:35:30.679Z,95949.81
2023-05-10T23:38:32.253Z,95941.09
2023-05-10T23:41:34.800Z,95941.28
2023-05-10T23:44:36.850Z,95935.91
2023-05-10T23:47:38.433Z,95935.91
2023-05-10T23:50:44.985Z,95936.91
2023-05-10T23:53:47.048Z,95937.91
2023-05-10T23:56:51.320Z,95930.75
2023-05-10T23:59:53.367Z,95932.56
